sensor_id;sensor_type;location;lat;lon;timestamp;P1;durP1;ratioP1;P2;durP2;ratioP2
12623;SDS011;6377;42.836;23.998;2023-09-12T00:00:49;4.43;;;3.30;;
12623;SDS011;6377;42.836;23.998;2023-09-12T00:03:18;5.67;;;3.53;;
12623;SDS011;6377;42.836;23.998;2023-09-12T00:05:50;6.60;;;3.20;;
12623;SDS011;6377;42.836;23.998;2023-09-12T00:08:17;7.80;;;3.37;;
12623;SDS011;6377;42.836;23.998;2023-09-12T00:10:46;6.17;;;3.10;;
12623;SDS011;6377;42.836;23.998;2023-09-12T00:13:13;5.00;;;3.33;;
12623;SDS011;6377;42.836;23.998;2023-09-12T00:15:41;6.50;;;3.77;;
12623;SDS011;6377;42.836;23.998;2023-09-12T00:18:08;3.67;;;3.00;;
12623;SDS011;6377;42.836;23.998;2023-09-12T00:20:35;3.77;;;3.00;;
12623;SDS011;6377;42.836;23.998;2023-09-12T00:23:02;6.03;;;3.60;;
12623;SDS011;6377;42.836;23.998;2023-09-12T00:25:30;4.10;;;3.20;;
12623;SDS011;6377;42.836;23.998;2023-09-12T00:27:58;3.77;;;3.17;;
12623;SDS011;6377;42.836;23.998;2023-09-12T00:30:26;4.60;;;3.40;;
12623;SDS011;6377;42.836;23.998;2023-09-12T00:32:53;8.87;;;3.80;;
12623;SDS011;6377;42.836;23.998;2023-09-12T00:35:20;5.13;;;2.97;;
12623;SDS011;6377;42.836;23.998;2023-09-12T00:37:47;4.07;;;3.07;;
12623;SDS011;6377;42.836;23.998;2023-09-12T00:40:14;4.53;;;3.53;;
12623;SDS011;6377;42.836;23.998;2023-09-12T00:42:41;5.90;;;3.40;;
12623;SDS011;6377;42.836;23.998;2023-09-12T00:45:10;4.57;;;3.20;;
12623;SDS011;6377;42.836;23.998;2023-09-12T00:47:37;4.83;;;3.47;;
12623;SDS011;6377;42.836;23.998;2023-09-12T00:50:05;4.80;;;3.30;;
12623;SDS011;6377;42.836;23.998;2023-09-12T00:52:33;4.60;;;3.30;;
12623;SDS011;6377;42.836;23.998;2023-09-12T00:55:03;5.03;;;3.20;;
12623;SDS011;6377;42.836;23.998;2023-09-12T00:57:31;5.40;;;3.47;;
12623;SDS011;6377;42.836;23.998;2023-09-12T01:00:01;3.53;;;3.03;;
12623;SDS011;6377;42.836;23.998;2023-09-12T01:02:38;5.40;;;3.53;;
12623;SDS011;6377;42.836;23.998;2023-09-12T01:05:06;4.50;;;3.03;;
12623;SDS011;6377;42.836;23.998;2023-09-12T01:07:34;6.17;;;3.73;;
12623;SDS011;6377;42.836;23.998;2023-09-12T01:10:02;4.60;;;3.13;;
12623;SDS011;6377;42.836;23.998;2023-09-12T01:12:30;4.87;;;3.47;;
12623;SDS011;6377;42.836;23.998;2023-09-12T01:14:57;6.10;;;3.60;;
12623;SDS011;6377;42.836;23.998;2023-09-12T01:17:24;5.83;;;3.73;;
12623;SDS011;6377;42.836;23.998;2023-09-12T01:19:53;5.30;;;3.43;;
12623;SDS011;6377;42.836;23.998;2023-09-12T01:25:20;4.40;;;3.33;;
12623;SDS011;6377;42.836;23.998;2023-09-12T01:28:10;4.93;;;3.33;;
12623;SDS011;6377;42.836;23.998;2023-09-12T01:30:40;4.17;;;3.30;;
12623;SDS011;6377;42.836;23.998;2023-09-12T01:33:09;4.77;;;3.40;;
12623;SDS011;6377;42.836;23.998;2023-09-12T01:35:36;4.67;;;3.30;;
12623;SDS011;6377;42.836;23.998;2023-09-12T01:38:03;6.57;;;3.43;;
12623;SDS011;6377;42.836;23.998;2023-09-12T01:40:33;4.70;;;3.40;;
12623;SDS011;6377;42.836;23.998;2023-09-12T01:43:06;3.97;;;3.10;;
12623;SDS011;6377;42.836;23.998;2023-09-12T01:45:35;6.20;;;3.33;;
12623;SDS011;6377;42.836;23.998;2023-09-12T01:48:03;3.77;;;2.80;;
12623;SDS011;6377;42.836;23.998;2023-09-12T01:50:32;4.30;;;3.00;;
12623;SDS011;6377;42.836;23.998;2023-09-12T01:53:00;6.33;;;3.30;;
12623;SDS011;6377;42.836;23.998;2023-09-12T01:55:28;4.67;;;3.43;;
12623;SDS011;6377;42.836;23.998;2023-09-12T01:57:56;4.60;;;3.17;;
12623;SDS011;6377;42.836;23.998;2023-09-12T02:00:23;5.20;;;2.97;;
12623;SDS011;6377;42.836;23.998;2023-09-12T02:02:52;4.00;;;2.80;;
12623;SDS011;6377;42.836;23.998;2023-09-12T02:05:20;3.40;;;3.10;;
12623;SDS011;6377;42.836;23.998;2023-09-12T02:07:48;3.87;;;3.10;;
12623;SDS011;6377;42.836;23.998;2023-09-12T02:10:15;6.33;;;2.90;;
12623;SDS011;6377;42.836;23.998;2023-09-12T02:12:42;3.53;;;2.70;;
12623;SDS011;6377;42.836;23.998;2023-09-12T02:15:10;3.60;;;2.70;;
12623;SDS011;6377;42.836;23.998;2023-09-12T02:17:37;2.77;;;2.50;;
12623;SDS011;6377;42.836;23.998;2023-09-12T02:20:07;4.87;;;3.17;;
12623;SDS011;6377;42.836;23.998;2023-09-12T02:22:36;2.83;;;2.53;;
12623;SDS011;6377;42.836;23.998;2023-09-12T02:25:05;4.77;;;2.70;;
12623;SDS011;6377;42.836;23.998;2023-09-12T02:27:33;2.90;;;2.43;;
12623;SDS011;6377;42.836;23.998;2023-09-12T02:30:00;4.27;;;2.77;;
12623;SDS011;6377;42.836;23.998;2023-09-12T02:32:28;3.50;;;2.60;;
12623;SDS011;6377;42.836;23.998;2023-09-12T02:34:55;4.03;;;2.60;;
12623;SDS011;6377;42.836;23.998;2023-09-12T02:37:24;3.97;;;2.60;;
12623;SDS011;6377;42.836;23.998;2023-09-12T02:39:51;3.27;;;2.57;;
12623;SDS011;6377;42.836;23.998;2023-09-12T02:42:18;3.50;;;2.80;;
12623;SDS011;6377;42.836;23.998;2023-09-12T02:44:45;3.83;;;2.70;;
12623;SDS011;6377;42.836;23.998;2023-09-12T02:47:13;3.00;;;2.50;;
12623;SDS011;6377;42.836;23.998;2023-09-12T02:49:40;3.73;;;2.70;;
12623;SDS011;6377;42.836;23.998;2023-09-12T02:52:07;4.40;;;2.80;;
12623;SDS011;6377;42.836;23.998;2023-09-12T02:54:36;5.93;;;2.90;;
12623;SDS011;6377;42.836;23.998;2023-09-12T02:57:03;3.40;;;2.93;;
12623;SDS011;6377;42.836;23.998;2023-09-12T02:59:30;3.70;;;2.60;;
12623;SDS011;6377;42.836;23.998;2023-09-12T03:01:57;3.70;;;2.87;;
12623;SDS011;6377;42.836;23.998;2023-09-12T03:04:25;5.13;;;3.27;;
12623;SDS011;6377;42.836;23.998;2023-09-12T03:06:53;4.07;;;3.07;;
12623;SDS011;6377;42.836;23.998;2023-09-12T03:09:20;5.23;;;4.73;;
12623;SDS011;6377;42.836;23.998;2023-09-12T03:11:49;5.03;;;3.80;;
12623;SDS011;6377;42.836;23.998;2023-09-12T03:14:16;4.40;;;3.63;;
12623;SDS011;6377;42.836;23.998;2023-09-12T03:16:43;6.03;;;3.80;;
12623;SDS011;6377;42.836;23.998;2023-09-12T03:19:11;5.87;;;3.70;;
12623;SDS011;6377;42.836;23.998;2023-09-12T03:21:38;6.00;;;3.50;;
12623;SDS011;6377;42.836;23.998;2023-09-12T03:24:05;4.30;;;3.20;;
12623;SDS011;6377;42.836;23.998;2023-09-12T03:26:33;3.40;;;3.07;;
12623;SDS011;6377;42.836;23.998;2023-09-12T03:29:04;4.80;;;3.40;;
12623;SDS011;6377;42.836;23.998;2023-09-12T03:31:31;6.27;;;3.30;;
12623;SDS011;6377;42.836;23.998;2023-09-12T03:33:58;3.93;;;3.10;;
12623;SDS011;6377;42.836;23.998;2023-09-12T03:36:26;6.60;;;3.07;;
12623;SDS011;6377;42.836;23.998;2023-09-12T03:38:53;3.70;;;2.90;;
12623;SDS011;6377;42.836;23.998;2023-09-12T03:41:20;4.27;;;2.90;;
12623;SDS011;6377;42.836;23.998;2023-09-12T03:43:50;3.60;;;2.90;;
12623;SDS011;6377;42.836;23.998;2023-09-12T03:46:19;3.10;;;2.80;;
12623;SDS011;6377;42.836;23.998;2023-09-12T03:48:46;5.87;;;3.03;;
12623;SDS011;6377;42.836;23.998;2023-09-12T03:51:14;3.67;;;2.80;;
12623;SDS011;6377;42.836;23.998;2023-09-12T03:53:41;4.00;;;2.80;;
12623;SDS011;6377;42.836;23.998;2023-09-12T03:56:08;5.10;;;2.90;;
12623;SDS011;6377;42.836;23.998;2023-09-12T03:58:37;4.97;;;2.77;;
12623;SDS011;6377;42.836;23.998;2023-09-12T04:01:04;3.50;;;2.73;;
12623;SDS011;6377;42.836;23.998;2023-09-12T04:03:33;4.00;;;2.60;;
12623;SDS011;6377;42.836;23.998;2023-09-12T04:06:00;3.07;;;2.60;;
12623;SDS011;6377;42.836;23.998;2023-09-12T04:08:27;3.67;;;2.70;;
12623;SDS011;6377;42.836;23.998;2023-09-12T04:10:54;3.03;;;2.40;;
12623;SDS011;6377;42.836;23.998;2023-09-12T04:13:21;3.33;;;2.60;;
12623;SDS011;6377;42.836;23.998;2023-09-12T04:15:48;5.50;;;2.90;;
12623;SDS011;6377;42.836;23.998;2023-09-12T04:18:15;3.37;;;2.50;;
12623;SDS011;6377;42.836;23.998;2023-09-12T04:20:43;3.80;;;2.60;;
12623;SDS011;6377;42.836;23.998;2023-09-12T04:23:10;3.33;;;2.83;;
12623;SDS011;6377;42.836;23.998;2023-09-12T04:25:37;3.67;;;2.57;;
12623;SDS011;6377;42.836;23.998;2023-09-12T04:28:08;3.77;;;2.57;;
12623;SDS011;6377;42.836;23.998;2023-09-12T04:30:35;5.20;;;2.73;;
12623;SDS011;6377;42.836;23.998;2023-09-12T04:33:02;9.50;;;3.43;;
12623;SDS011;6377;42.836;23.998;2023-09-12T04:35:32;5.53;;;2.97;;
12623;SDS011;6377;42.836;23.998;2023-09-12T04:38:00;6.87;;;3.47;;
12623;SDS011;6377;42.836;23.998;2023-09-12T04:40:28;3.80;;;3.13;;
12623;SDS011;6377;42.836;23.998;2023-09-12T04:42:55;6.50;;;3.50;;
12623;SDS011;6377;42.836;23.998;2023-09-12T04:45:22;4.87;;;3.50;;
12623;SDS011;6377;42.836;23.998;2023-09-12T04:47:49;6.90;;;3.63;;
12623;SDS011;6377;42.836;23.998;2023-09-12T04:50:16;5.87;;;3.67;;
12623;SDS011;6377;42.836;23.998;2023-09-12T04:52:43;6.93;;;3.20;;
12623;SDS011;6377;42.836;23.998;2023-09-12T04:55:12;4.80;;;3.40;;
12623;SDS011;6377;42.836;23.998;2023-09-12T04:57:39;6.70;;;3.37;;
12623;SDS011;6377;42.836;23.998;2023-09-12T05:00:06;6.73;;;3.47;;
12623;SDS011;6377;42.836;23.998;2023-09-12T05:02:36;4.00;;;3.20;;
12623;SDS011;6377;42.836;23.998;2023-09-12T05:05:03;6.50;;;3.53;;
12623;SDS011;6377;42.836;23.998;2023-09-12T05:07:31;6.07;;;3.77;;
12623;SDS011;6377;42.836;23.998;2023-09-12T05:09:59;5.33;;;3.13;;
12623;SDS011;6377;42.836;23.998;2023-09-12T05:12:27;5.43;;;3.40;;
12623;SDS011;6377;42.836;23.998;2023-09-12T05:14:54;4.43;;;3.27;;
12623;SDS011;6377;42.836;23.998;2023-09-12T05:17:21;5.07;;;3.30;;
12623;SDS011;6377;42.836;23.998;2023-09-12T05:19:48;4.67;;;3.47;;
12623;SDS011;6377;42.836;23.998;2023-09-12T05:22:16;5.20;;;3.20;;
12623;SDS011;6377;42.836;23.998;2023-09-12T05:24:43;4.53;;;3.10;;
12623;SDS011;6377;42.836;23.998;2023-09-12T05:27:11;5.83;;;3.40;;
12623;SDS011;6377;42.836;23.998;2023-09-12T05:29:39;4.90;;;3.50;;
12623;SDS011;6377;42.836;23.998;2023-09-12T05:32:06;5.67;;;3.13;;
12623;SDS011;6377;42.836;23.998;2023-09-12T05:34:33;5.60;;;3.40;;
12623;SDS011;6377;42.836;23.998;2023-09-12T05:37:00;6.20;;;3.47;;
12623;SDS011;6377;42.836;23.998;2023-09-12T05:39:28;7.00;;;4.40;;
12623;SDS011;6377;42.836;23.998;2023-09-12T05:41:55;6.53;;;3.50;;
12623;SDS011;6377;42.836;23.998;2023-09-12T05:44:22;5.37;;;4.10;;
12623;SDS011;6377;42.836;23.998;2023-09-12T05:46:51;7.13;;;4.50;;
12623;SDS011;6377;42.836;23.998;2023-09-12T05:49:19;9.57;;;5.43;;
12623;SDS011;6377;42.836;23.998;2023-09-12T05:51:46;10.20;;;5.73;;
12623;SDS011;6377;42.836;23.998;2023-09-12T05:54:13;6.10;;;4.20;;
12623;SDS011;6377;42.836;23.998;2023-09-12T05:56:40;9.53;;;4.17;;
12623;SDS011;6377;42.836;23.998;2023-09-12T05:59:08;7.00;;;4.10;;
12623;SDS011;6377;42.836;23.998;2023-09-12T06:01:35;6.07;;;4.17;;
12623;SDS011;6377;42.836;23.998;2023-09-12T06:04:04;7.90;;;4.37;;
12623;SDS011;6377;42.836;23.998;2023-09-12T06:06:31;9.10;;;4.80;;
12623;SDS011;6377;42.836;23.998;2023-09-12T06:08:58;7.50;;;4.17;;
12623;SDS011;6377;42.836;23.998;2023-09-12T06:11:25;6.20;;;4.57;;
12623;SDS011;6377;42.836;23.998;2023-09-12T06:13:52;7.73;;;4.43;;
12623;SDS011;6377;42.836;23.998;2023-09-12T06:16:19;7.43;;;4.53;;
12623;SDS011;6377;42.836;23.998;2023-09-12T06:18:47;6.33;;;4.40;;
12623;SDS011;6377;42.836;23.998;2023-09-12T06:21:15;7.53;;;4.90;;
12623;SDS011;6377;42.836;23.998;2023-09-12T06:23:43;8.07;;;4.57;;
12623;SDS011;6377;42.836;23.998;2023-09-12T06:26:10;10.17;;;6.40;;
12623;SDS011;6377;42.836;23.998;2023-09-12T06:28:37;12.33;;;6.70;;
12623;SDS011;6377;42.836;23.998;2023-09-12T06:31:07;10.53;;;7.73;;
12623;SDS011;6377;42.836;23.998;2023-09-12T06:33:34;9.10;;;5.80;;
12623;SDS011;6377;42.836;23.998;2023-09-12T06:36:01;10.77;;;7.00;;
12623;SDS011;6377;42.836;23.998;2023-09-12T06:38:30;13.27;;;6.20;;
12623;SDS011;6377;42.836;23.998;2023-09-12T06:40:57;8.15;;;5.43;;
12623;SDS011;6377;42.836;23.998;2023-09-12T06:43:25;8.45;;;5.15;;
12623;SDS011;6377;42.836;23.998;2023-09-12T06:45:52;9.70;;;5.63;;
12623;SDS011;6377;42.836;23.998;2023-09-12T06:48:19;11.40;;;5.17;;
12623;SDS011;6377;42.836;23.998;2023-09-12T06:50:46;9.15;;;3.92;;
12623;SDS011;6377;42.836;23.998;2023-09-12T06:53:13;8.20;;;4.40;;
12623;SDS011;6377;42.836;23.998;2023-09-12T06:55:42;8.70;;;5.05;;
12623;SDS011;6377;42.836;23.998;2023-09-12T06:58:09;10.65;;;4.82;;
12623;SDS011;6377;42.836;23.998;2023-09-12T07:00:36;6.55;;;4.70;;
12623;SDS011;6377;42.836;23.998;2023-09-12T07:03:04;7.97;;;5.30;;
12623;SDS011;6377;42.836;23.998;2023-09-12T07:05:31;7.53;;;4.65;;
12623;SDS011;6377;42.836;23.998;2023-09-12T07:07:58;4.77;;;4.27;;
12623;SDS011;6377;42.836;23.998;2023-09-12T07:10:26;6.18;;;4.40;;
12623;SDS011;6377;42.836;23.998;2023-09-12T07:12:55;7.95;;;4.30;;
12623;SDS011;6377;42.836;23.998;2023-09-12T07:15:23;6.00;;;4.03;;
12623;SDS011;6377;42.836;23.998;2023-09-12T07:17:51;6.55;;;3.83;;
12623;SDS011;6377;42.836;23.998;2023-09-12T07:20:18;8.05;;;4.47;;
12623;SDS011;6377;42.836;23.998;2023-09-12T07:22:45;7.72;;;4.15;;
12623;SDS011;6377;42.836;23.998;2023-09-12T07:25:13;9.15;;;4.80;;
12623;SDS011;6377;42.836;23.998;2023-09-12T07:27:41;8.98;;;4.55;;
12623;SDS011;6377;42.836;23.998;2023-09-12T07:30:10;9.48;;;4.47;;
12623;SDS011;6377;42.836;23.998;2023-09-12T07:32:37;7.15;;;3.92;;
12623;SDS011;6377;42.836;23.998;2023-09-12T07:35:05;10.18;;;4.18;;
12623;SDS011;6377;42.836;23.998;2023-09-12T07:37:32;6.10;;;3.70;;
12623;SDS011;6377;42.836;23.998;2023-09-12T07:40:00;6.75;;;3.70;;
12623;SDS011;6377;42.836;23.998;2023-09-12T07:42:31;8.27;;;4.00;;
12623;SDS011;6377;42.836;23.998;2023-09-12T07:44:59;7.90;;;3.90;;
12623;SDS011;6377;42.836;23.998;2023-09-12T07:47:28;8.60;;;3.67;;
12623;SDS011;6377;42.836;23.998;2023-09-12T07:49:55;8.00;;;3.40;;
12623;SDS011;6377;42.836;23.998;2023-09-12T07:52:22;6.03;;;3.50;;
12623;SDS011;6377;42.836;23.998;2023-09-12T07:54:49;6.50;;;3.70;;
12623;SDS011;6377;42.836;23.998;2023-09-12T07:57:22;6.28;;;3.60;;
12623;SDS011;6377;42.836;23.998;2023-09-12T07:59:49;7.65;;;3.42;;
12623;SDS011;6377;42.836;23.998;2023-09-12T08:02:16;4.47;;;3.40;;
12623;SDS011;6377;42.836;23.998;2023-09-12T08:04:45;8.13;;;3.55;;
12623;SDS011;6377;42.836;23.998;2023-09-12T08:07:12;7.15;;;4.03;;
12623;SDS011;6377;42.836;23.998;2023-09-12T08:09:49;8.32;;;4.25;;
12623;SDS011;6377;42.836;23.998;2023-09-12T08:12:18;9.20;;;4.13;;
12623;SDS011;6377;42.836;23.998;2023-09-12T08:14:46;9.18;;;3.65;;
12623;SDS011;6377;42.836;23.998;2023-09-12T08:17:13;6.80;;;3.90;;
12623;SDS011;6377;42.836;23.998;2023-09-12T08:19:41;5.22;;;3.70;;
12623;SDS011;6377;42.836;23.998;2023-09-12T08:22:10;4.13;;;3.28;;
12623;SDS011;6377;42.836;23.998;2023-09-12T08:24:38;6.25;;;3.50;;
12623;SDS011;6377;42.836;23.998;2023-09-12T08:27:05;4.55;;;3.63;;
12623;SDS011;6377;42.836;23.998;2023-09-12T08:29:34;6.50;;;3.35;;
12623;SDS011;6377;42.836;23.998;2023-09-12T08:32:01;4.70;;;3.58;;
12623;SDS011;6377;42.836;23.998;2023-09-12T08:34:29;7.65;;;3.22;;
12623;SDS011;6377;42.836;23.998;2023-09-12T08:36:56;6.97;;;3.58;;
12623;SDS011;6377;42.836;23.998;2023-09-12T08:39:25;7.47;;;3.55;;
12623;SDS011;6377;42.836;23.998;2023-09-12T08:41:53;4.55;;;3.63;;
12623;SDS011;6377;42.836;23.998;2023-09-12T08:44:21;7.82;;;3.22;;
12623;SDS011;6377;42.836;23.998;2023-09-12T08:46:48;6.82;;;3.35;;
12623;SDS011;6377;42.836;23.998;2023-09-12T08:49:15;7.57;;;3.20;;
12623;SDS011;6377;42.836;23.998;2023-09-12T08:51:44;7.25;;;3.70;;
12623;SDS011;6377;42.836;23.998;2023-09-12T08:54:11;7.45;;;3.50;;
12623;SDS011;6377;42.836;23.998;2023-09-12T08:56:40;6.78;;;3.45;;
12623;SDS011;6377;42.836;23.998;2023-09-12T08:59:10;4.95;;;3.40;;
12623;SDS011;6377;42.836;23.998;2023-09-12T09:01:38;5.38;;;3.58;;
12623;SDS011;6377;42.836;23.998;2023-09-12T09:04:06;5.75;;;3.38;;
12623;SDS011;6377;42.836;23.998;2023-09-12T09:06:34;10.10;;;3.60;;
12623;SDS011;6377;42.836;23.998;2023-09-12T09:09:05;6.55;;;3.47;;
12623;SDS011;6377;42.836;23.998;2023-09-12T09:11:33;4.93;;;3.50;;
12623;SDS011;6377;42.836;23.998;2023-09-12T09:14:02;8.43;;;3.22;;
12623;SDS011;6377;42.836;23.998;2023-09-12T09:16:29;7.35;;;3.47;;
12623;SDS011;6377;42.836;23.998;2023-09-12T09:18:58;4.75;;;3.53;;
12623;SDS011;6377;42.836;23.998;2023-09-12T09:21:27;8.20;;;3.60;;
12623;SDS011;6377;42.836;23.998;2023-09-12T09:23:57;6.55;;;3.50;;
12623;SDS011;6377;42.836;23.998;2023-09-12T09:26:25;6.80;;;3.45;;
12623;SDS011;6377;42.836;23.998;2023-09-12T09:29:10;3.92;;;3.53;;
12623;SDS011;6377;42.836;23.998;2023-09-12T09:31:40;5.80;;;3.42;;
12623;SDS011;6377;42.836;23.998;2023-09-12T09:34:10;7.80;;;3.50;;
12623;SDS011;6377;42.836;23.998;2023-09-12T09:36:40;3.50;;;3.20;;
12623;SDS011;6377;42.836;23.998;2023-09-12T09:39:09;6.90;;;3.15;;
12623;SDS011;6377;42.836;23.998;2023-09-12T09:41:37;6.05;;;3.63;;
12623;SDS011;6377;42.836;23.998;2023-09-12T09:44:05;10.55;;;3.30;;
12623;SDS011;6377;42.836;23.998;2023-09-12T09:46:35;5.20;;;3.63;;
12623;SDS011;6377;42.836;23.998;2023-09-12T09:49:04;5.07;;;3.50;;
12623;SDS011;6377;42.836;23.998;2023-09-12T09:51:32;5.00;;;3.08;;
12623;SDS011;6377;42.836;23.998;2023-09-12T09:54:07;5.80;;;3.20;;
12623;SDS011;6377;42.836;23.998;2023-09-12T09:56:36;5.68;;;3.30;;
12623;SDS011;6377;42.836;23.998;2023-09-12T09:59:13;4.60;;;3.08;;
12623;SDS011;6377;42.836;23.998;2023-09-12T10:01:43;4.70;;;3.20;;
12623;SDS011;6377;42.836;23.998;2023-09-12T10:04:11;6.60;;;3.60;;
12623;SDS011;6377;42.836;23.998;2023-09-12T10:06:39;3.33;;;2.85;;
12623;SDS011;6377;42.836;23.998;2023-09-12T10:09:10;4.97;;;3.47;;
12623;SDS011;6377;42.836;23.998;2023-09-12T10:11:39;4.93;;;3.15;;
12623;SDS011;6377;42.836;23.998;2023-09-12T10:14:07;5.57;;;3.28;;
12623;SDS011;6377;42.836;23.998;2023-09-12T10:16:34;7.45;;;3.22;;
12623;SDS011;6377;42.836;23.998;2023-09-12T10:19:10;5.20;;;2.88;;
12623;SDS011;6377;42.836;23.998;2023-09-12T10:21:46;4.60;;;3.05;;
12623;SDS011;6377;42.836;23.998;2023-09-12T10:24:15;3.60;;;3.03;;
12623;SDS011;6377;42.836;23.998;2023-09-12T10:26:43;12.45;;;3.20;;
12623;SDS011;6377;42.836;23.998;2023-09-12T10:29:12;5.93;;;3.13;;
12623;SDS011;6377;42.836;23.998;2023-09-12T10:31:40;4.88;;;2.70;;
12623;SDS011;6377;42.836;23.998;2023-09-12T10:34:10;4.63;;;2.80;;
12623;SDS011;6377;42.836;23.998;2023-09-12T10:36:40;5.80;;;3.20;;
12623;SDS011;6377;42.836;23.998;2023-09-12T10:39:08;6.13;;;3.42;;
12623;SDS011;6377;42.836;23.998;2023-09-12T10:41:37;4.80;;;2.85;;
12623;SDS011;6377;42.836;23.998;2023-09-12T10:44:06;11.00;;;3.38;;
12623;SDS011;6377;42.836;23.998;2023-09-12T10:46:36;3.97;;;2.85;;
12623;SDS011;6377;42.836;23.998;2023-09-12T10:49:06;5.13;;;3.33;;
12623;SDS011;6377;42.836;23.998;2023-09-12T10:51:38;5.63;;;2.90;;
12623;SDS011;6377;42.836;23.998;2023-09-12T10:54:06;5.28;;;3.08;;
12623;SDS011;6377;42.836;23.998;2023-09-12T10:56:34;5.90;;;3.30;;
12623;SDS011;6377;42.836;23.998;2023-09-12T10:59:11;7.70;;;3.20;;
12623;SDS011;6377;42.836;23.998;2023-09-12T11:01:40;5.13;;;3.30;;
12623;SDS011;6377;42.836;23.998;2023-09-12T11:10:19;23.85;;;6.43;;
12623;SDS011;6377;42.836;23.998;2023-09-12T11:12:48;5.60;;;3.40;;
12623;SDS011;6377;42.836;23.998;2023-09-12T11:15:16;12.85;;;4.68;;
12623;SDS011;6377;42.836;23.998;2023-09-12T11:17:44;5.40;;;3.38;;
12623;SDS011;6377;42.836;23.998;2023-09-12T11:20:12;5.28;;;2.92;;
12623;SDS011;6377;42.836;23.998;2023-09-12T11:22:42;4.43;;;3.17;;
12623;SDS011;6377;42.836;23.998;2023-09-12T11:25:17;5.13;;;2.70;;
12623;SDS011;6377;42.836;23.998;2023-09-12T11:28:04;7.03;;;3.15;;
12623;SDS011;6377;42.836;23.998;2023-09-12T11:30:32;7.63;;;3.58;;
12623;SDS011;6377;42.836;23.998;2023-09-12T11:33:02;4.70;;;3.30;;
12623;SDS011;6377;42.836;23.998;2023-09-12T11:35:30;10.25;;;3.42;;
12623;SDS011;6377;42.836;23.998;2023-09-12T11:38:09;3.92;;;2.95;;
12623;SDS011;6377;42.836;23.998;2023-09-12T11:40:44;9.57;;;3.40;;
12623;SDS011;6377;42.836;23.998;2023-09-12T11:43:19;5.90;;;3.10;;
12623;SDS011;6377;42.836;23.998;2023-09-12T11:45:48;5.85;;;3.17;;
12623;SDS011;6377;42.836;23.998;2023-09-12T11:48:16;6.97;;;3.13;;
12623;SDS011;6377;42.836;23.998;2023-09-12T11:50:48;4.10;;;2.72;;
12623;SDS011;6377;42.836;23.998;2023-09-12T11:53:19;4.03;;;3.08;;
12623;SDS011;6377;42.836;23.998;2023-09-12T11:55:48;5.03;;;3.25;;
12623;SDS011;6377;42.836;23.998;2023-09-12T11:58:18;7.65;;;3.13;;
12623;SDS011;6377;42.836;23.998;2023-09-12T12:00:46;5.05;;;3.22;;
12623;SDS011;6377;42.836;23.998;2023-09-12T12:03:15;6.95;;;3.13;;
12623;SDS011;6377;42.836;23.998;2023-09-12T12:05:42;4.30;;;3.20;;
12623;SDS011;6377;42.836;23.998;2023-09-12T12:08:10;8.60;;;3.33;;
12623;SDS011;6377;42.836;23.998;2023-09-12T12:10:39;5.50;;;3.13;;
12623;SDS011;6377;42.836;23.998;2023-09-12T12:13:06;5.18;;;2.92;;
12623;SDS011;6377;42.836;23.998;2023-09-12T12:15:37;5.97;;;3.13;;
12623;SDS011;6377;42.836;23.998;2023-09-12T12:18:04;6.80;;;3.20;;
12623;SDS011;6377;42.836;23.998;2023-09-12T12:20:31;4.53;;;2.90;;
12623;SDS011;6377;42.836;23.998;2023-09-12T12:22:58;9.43;;;3.67;;
12623;SDS011;6377;42.836;23.998;2023-09-12T12:25:25;14.15;;;4.03;;
12623;SDS011;6377;42.836;23.998;2023-09-12T12:27:54;6.85;;;3.10;;
12623;SDS011;6377;42.836;23.998;2023-09-12T12:30:21;6.25;;;3.38;;
12623;SDS011;6377;42.836;23.998;2023-09-12T12:32:48;8.02;;;3.17;;
12623;SDS011;6377;42.836;23.998;2023-09-12T12:35:18;5.43;;;3.25;;
12623;SDS011;6377;42.836;23.998;2023-09-12T12:37:47;5.78;;;3.08;;
12623;SDS011;6377;42.836;23.998;2023-09-12T12:40:15;7.32;;;3.20;;
12623;SDS011;6377;42.836;23.998;2023-09-12T12:42:43;6.57;;;3.08;;
12623;SDS011;6377;42.836;23.998;2023-09-12T12:45:14;4.63;;;3.10;;
12623;SDS011;6377;42.836;23.998;2023-09-12T12:47:42;5.82;;;3.00;;
12623;SDS011;6377;42.836;23.998;2023-09-12T12:50:10;5.38;;;2.97;;
12623;SDS011;6377;42.836;23.998;2023-09-12T12:52:38;7.05;;;3.33;;
12623;SDS011;6377;42.836;23.998;2023-09-12T12:55:05;7.63;;;3.45;;
12623;SDS011;6377;42.836;23.998;2023-09-12T12:57:35;4.93;;;3.15;;
12623;SDS011;6377;42.836;23.998;2023-09-12T13:00:05;5.85;;;3.30;;
12623;SDS011;6377;42.836;23.998;2023-09-12T13:02:38;6.40;;;3.47;;
12623;SDS011;6377;42.836;23.998;2023-09-12T13:05:18;6.28;;;3.50;;
12623;SDS011;6377;42.836;23.998;2023-09-12T13:07:46;4.03;;;3.35;;
12623;SDS011;6377;42.836;23.998;2023-09-12T13:10:13;4.22;;;3.30;;
12623;SDS011;6377;42.836;23.998;2023-09-12T13:12:41;7.82;;;3.50;;
12623;SDS011;6377;42.836;23.998;2023-09-12T13:15:11;4.45;;;3.03;;
12623;SDS011;6377;42.836;23.998;2023-09-12T13:17:39;6.93;;;3.40;;
12623;SDS011;6377;42.836;23.998;2023-09-12T13:20:07;4.78;;;2.95;;
12623;SDS011;6377;42.836;23.998;2023-09-12T13:22:35;6.68;;;3.17;;
12623;SDS011;6377;42.836;23.998;2023-09-12T13:25:02;6.50;;;3.28;;
12623;SDS011;6377;42.836;23.998;2023-09-12T13:27:30;6.18;;;3.20;;
12623;SDS011;6377;42.836;23.998;2023-09-12T13:29:57;6.45;;;3.15;;
12623;SDS011;6377;42.836;23.998;2023-09-12T13:32:24;6.82;;;3.35;;
12623;SDS011;6377;42.836;23.998;2023-09-12T13:34:52;4.57;;;2.88;;
12623;SDS011;6377;42.836;23.998;2023-09-12T13:37:19;6.63;;;3.35;;
12623;SDS011;6377;42.836;23.998;2023-09-12T13:39:46;4.10;;;3.05;;
12623;SDS011;6377;42.836;23.998;2023-09-12T13:42:14;7.57;;;3.35;;
12623;SDS011;6377;42.836;23.998;2023-09-12T13:44:44;6.43;;;3.05;;
12623;SDS011;6377;42.836;23.998;2023-09-12T13:47:11;4.13;;;3.03;;
12623;SDS011;6377;42.836;23.998;2023-09-12T13:49:38;5.85;;;3.10;;
12623;SDS011;6377;42.836;23.998;2023-09-12T13:52:07;5.18;;;3.13;;
12623;SDS011;6377;42.836;23.998;2023-09-12T13:54:34;4.70;;;3.00;;
12623;SDS011;6377;42.836;23.998;2023-09-12T13:57:01;3.95;;;3.03;;
12623;SDS011;6377;42.836;23.998;2023-09-12T13:59:28;4.00;;;2.85;;
12623;SDS011;6377;42.836;23.998;2023-09-12T14:01:55;5.35;;;3.13;;
12623;SDS011;6377;42.836;23.998;2023-09-12T14:04:22;7.07;;;3.80;;
12623;SDS011;6377;42.836;23.998;2023-09-12T14:06:50;3.97;;;3.20;;
12623;SDS011;6377;42.836;23.998;2023-09-12T14:09:18;5.15;;;3.00;;
12623;SDS011;6377;42.836;23.998;2023-09-12T14:11:45;7.20;;;3.08;;
12623;SDS011;6377;42.836;23.998;2023-09-12T14:14:12;5.07;;;3.00;;
12623;SDS011;6377;42.836;23.998;2023-09-12T14:16:40;4.22;;;2.80;;
12623;SDS011;6377;42.836;23.998;2023-09-12T14:19:07;6.72;;;3.08;;
12623;SDS011;6377;42.836;23.998;2023-09-12T14:21:35;5.50;;;3.28;;
12623;SDS011;6377;42.836;23.998;2023-09-12T14:24:02;5.43;;;3.10;;
12623;SDS011;6377;42.836;23.998;2023-09-12T14:26:31;6.15;;;3.00;;
12623;SDS011;6377;42.836;23.998;2023-09-12T14:28:58;5.18;;;2.85;;
12623;SDS011;6377;42.836;23.998;2023-09-12T14:31:25;3.65;;;2.75;;
12623;SDS011;6377;42.836;23.998;2023-09-12T14:33:52;5.57;;;3.33;;
12623;SDS011;6377;42.836;23.998;2023-09-12T14:36:20;5.85;;;3.03;;
12623;SDS011;6377;42.836;23.998;2023-09-12T14:38:47;7.60;;;3.30;;
12623;SDS011;6377;42.836;23.998;2023-09-12T14:41:14;3.78;;;3.05;;
12623;SDS011;6377;42.836;23.998;2023-09-12T14:43:42;7.75;;;4.38;;
12623;SDS011;6377;42.836;23.998;2023-09-12T14:46:09;9.13;;;4.38;;
12623;SDS011;6377;42.836;23.998;2023-09-12T14:48:36;5.25;;;3.42;;
12623;SDS011;6377;42.836;23.998;2023-09-12T14:51:03;4.80;;;3.38;;
12623;SDS011;6377;42.836;23.998;2023-09-12T14:53:30;10.63;;;3.60;;
12623;SDS011;6377;42.836;23.998;2023-09-12T14:55:58;8.43;;;3.60;;
12623;SDS011;6377;42.836;23.998;2023-09-12T14:58:25;5.10;;;3.53;;
12623;SDS011;6377;42.836;23.998;2023-09-12T15:00:55;7.75;;;3.33;;
12623;SDS011;6377;42.836;23.998;2023-09-12T15:03:23;5.47;;;3.10;;